createdAt,value
2019-02-25T00:00:35.939Z,0.00
2019-02-25T00:01:35.929Z,0.00
2019-02-25T00:02:35.917Z,0.00
2019-02-25T00:03:35.907Z,0.00
2019-02-25T00:04:35.948Z,0.00
2019-02-25T00:05:35.887Z,0.00
2019-02-25T00:06:35.881Z,0.00
2019-02-25T00:07:35.865Z,0.00
2019-02-25T00:08:35.858Z,0.00
2019-02-25T00:09:35.844Z,0.00
2019-02-25T00:10:35.877Z,0.00
2019-02-25T00:11:35.827Z,0.00
2019-02-25T00:12:35.812Z,0.00
2019-02-25T00:13:35.802Z,0.00
2019-02-25T00:14:35.793Z,0.00
2019-02-25T00:15:35.780Z,0.00
2019-02-25T00:16:35.783Z,0.00
2019-02-25T00:17:35.763Z,0.00
2019-02-25T00:18:35.754Z,0.00
2019-02-25T00:19:35.738Z,0.00
2019-02-25T00:20:35.728Z,0.00
2019-02-25T00:21:35.719Z,0.00
2019-02-25T00:22:35.745Z,0.00
2019-02-25T00:23:35.697Z,0.00
2019-02-25T00:24:35.687Z,0.00
2019-02-25T00:25:42.718Z,0.00
2019-02-25T00:26:35.668Z,0.00
2019-02-25T00:27:35.660Z,0.00
2019-02-25T00:28:35.693Z,0.00
2019-02-25T00:29:35.636Z,0.00
2019-02-25T00:30:35.659Z,0.00
2019-02-25T00:31:35.614Z,0.00
2019-02-25T00:32:35.603Z,0.00
2019-02-25T00:33:35.628Z,0.00
2019-02-25T00:34:35.664Z,0.00
2019-02-25T00:35:35.575Z,0.00
2019-02-25T00:36:35.598Z,0.00
2019-02-25T00:37:35.563Z,0.00
2019-02-25T00:38:35.550Z,0.00
2019-02-25T00:39:35.535Z,0.00
2019-02-25T00:40:35.575Z,0.00
2019-02-25T00:41:35.515Z,0.00
2019-02-25T00:42:35.530Z,0.00
2019-02-25T00:43:35.492Z,0.00
2019-02-25T00:44:35.496Z,0.00
2019-02-25T00:45:35.467Z,0.00
2019-02-25T00:46:35.521Z,0.00
2019-02-25T00:47:35.460Z,0.00
2019-02-25T00:48:35.448Z,0.00
2019-02-25T00:49:35.445Z,0.00
2019-02-25T00:50:35.410Z,0.00
2019-02-25T00:51:35.407Z,0.00
2019-02-25T00:52:35.463Z,0.00
2019-02-25T00:53:35.387Z,0.00
2019-02-25T00:54:35.374Z,0.00
2019-02-25T00:55:35.373Z,0.00
2019-02-25T00:56:35.358Z,0.00
2019-02-25T00:57:35.365Z,0.00
2019-02-25T00:58:35.404Z,0.00
2019-02-25T00:59:35.326Z,0.00
2019-02-25T01:00:35.320Z,0.00
2019-02-25T01:01:35.313Z,0.00
2019-02-25T01:02:35.291Z,0.00
2019-02-25T01:03:35.291Z,0.00
2019-02-25T01:04:35.355Z,0.00
2019-02-25T01:05:35.256Z,0.00
2019-02-25T01:06:35.259Z,0.00
2019-02-25T01:07:35.253Z,0.00
2019-02-25T01:08:35.227Z,0.00
2019-02-25T01:09:35.221Z,0.00
2019-02-25T01:10:35.274Z,0.00
2019-02-25T01:11:35.195Z,0.00
2019-02-25T01:12:35.192Z,0.00
2019-02-25T01:13:35.185Z,0.00
2019-02-25T01:14:35.195Z,0.00
2019-02-25T01:15:35.154Z,0.00
2019-02-25T01:16:35.168Z,0.00
2019-02-25T01:17:35.128Z,0.00
2019-02-25T01:18:35.134Z,0.00
2019-02-25T01:19:35.106Z,0.00
2019-02-25T01:20:35.103Z,0.00
2019-02-25T01:21:35.121Z,0.00
2019-02-25T01:22:35.179Z,0.00
2019-02-25T01:23:35.066Z,0.00
2019-02-25T01:24:35.058Z,0.00
2019-02-25T01:25:35.059Z,0.00
2019-02-25T01:26:35.057Z,0.00
2019-02-25T01:27:35.030Z,0.00
2019-02-25T01:28:35.073Z,0.00
2019-02-25T01:29:35.020Z,0.00
2019-02-25T01:30:35.002Z,0.00
2019-02-25T01:31:34.985Z,0.00
2019-02-25T01:32:35.007Z,0.00
2019-02-25T01:33:34.984Z,0.00
2019-02-25T01:34:35.037Z,0.00
2019-02-25T01:35:34.937Z,0.00
2019-02-25T01:36:34.940Z,0.00
2019-02-25T01:37:34.927Z,0.00
2019-02-25T01:38:34.905Z,0.00
2019-02-25T01:39:34.896Z,0.00
2019-02-25T01:40:34.924Z,0.00
2019-02-25T01:41:34.889Z,0.00
2019-02-25T01:42:34.874Z,0.00
2019-02-25T01:43:34.857Z,0.00
2019-02-25T01:44:34.869Z,0.00
2019-02-25T01:45:34.838Z,0.00
2019-02-25T01:46:34.873Z,0.00
2019-02-25T01:47:34.829Z,0.00
2019-02-25T01:48:34.832Z,0.00
2019-02-25T01:49:34.793Z,0.00
2019-02-25T01:50:34.806Z,0.00
2019-02-25T01:51:34.777Z,0.00
2019-02-25T01:52:34.831Z,0.00
2019-02-25T01:53:34.771Z,0.00
2019-02-25T01:54:34.752Z,0.00
2019-02-25T01:55:34.731Z,0.00
2019-02-25T01:56:34.720Z,0.00
2019-02-25T01:57:34.713Z,0.00
2019-02-25T01:58:34.739Z,0.00
2019-02-25T01:59:34.711Z,0.00
2019-02-25T02:00:34.688Z,0.00
2019-02-25T02:01:34.678Z,0.00
2019-02-25T02:02:34.675Z,0.00
2019-02-25T02:03:34.655Z,0.00
2019-02-25T02:04:34.665Z,0.00
2019-02-25T02:05:34.632Z,0.00
2019-02-25T02:06:34.610Z,0.00
2019-02-25T02:07:34.613Z,0.00
2019-02-25T02:08:34.598Z,0.00
2019-02-25T02:09:34.589Z,0.00
2019-02-25T02:10:34.613Z,0.00
2019-02-25T02:11:34.578Z,0.00
2019-02-25T02:12:34.566Z,0.00
2019-02-25T02:13:34.558Z,0.00
2019-02-25T02:14:34.546Z,0.00
2019-02-25T02:15:34.523Z,0.00
2019-02-25T02:16:34.533Z,0.00
2019-02-25T02:17:34.517Z,0.00
2019-02-25T02:18:34.509Z,0.00
2019-02-25T02:19:34.480Z,0.00
2019-02-25T02:20:34.498Z,0.00
2019-02-25T02:21:34.459Z,0.00
2019-02-25T02:22:34.464Z,0.00
2019-02-25T02:23:34.447Z,0.00
2019-02-25T02:24:34.456Z,0.00
2019-02-25T02:25:34.426Z,0.00
2019-02-25T02:26:34.435Z,0.00
2019-02-25T02:27:34.410Z,0.00
2019-02-25T02:28:34.413Z,0.00
2019-02-25T02:29:34.393Z,0.00
2019-02-25T02:30:34.392Z,0.00
2019-02-25T02:31:34.368Z,0.00
2019-02-25T02:32:34.348Z,0.00
2019-02-25T02:33:34.349Z,0.00
2019-02-25T02:34:34.440Z,0.00
2019-02-25T02:35:34.339Z,0.00
2019-02-25T02:36:34.305Z,0.00
2019-02-25T02:37:34.309Z,0.00
2019-02-25T02:38:34.302Z,0.00
2019-02-25T02:39:34.285Z,0.00
2019-02-25T02:40:34.390Z,0.00
2019-02-25T02:41:34.272Z,0.00
2019-02-25T02:42:34.246Z,0.00
2019-02-25T02:43:34.232Z,0.00
2019-02-25T02:44:34.236Z,0.00
2019-02-25T02:45:34.217Z,0.00
2019-02-25T02:46:34.327Z,0.00
2019-02-25T02:47:34.197Z,0.00
2019-02-25T02:48:34.203Z,0.00
2019-02-25T02:49:34.169Z,0.00
2019-02-25T02:50:34.191Z,0.00
2019-02-25T02:51:34.150Z,0.00
2019-02-25T02:52:34.155Z,0.00
2019-02-25T02:53:34.168Z,0.00
2019-02-25T02:54:34.130Z,0.00
2019-02-25T02:55:34.130Z,0.00
2019-02-25T02:56:34.117Z,0.00
2019-02-25T02:57:34.104Z,0.00
2019-02-25T02:58:34.102Z,0.00
2019-02-25T02:59:34.098Z,0.00
2019-02-25T03:00:34.057Z,0.00
2019-02-25T03:01:34.046Z,0.00
2019-02-25T03:02:34.033Z,0.00
2019-02-25T03:03:34.039Z,0.00
2019-02-25T03:04:34.046Z,0.00
2019-02-25T03:05:34.036Z,0.00
2019-02-25T03:06:34.008Z,0.00
2019-02-25T03:07:34.004Z,0.00
2019-02-25T03:08:33.979Z,0.00
2019-02-25T03:09:33.966Z,0.00
2019-02-25T03:10:34.085Z,0.00
2019-02-25T03:11:33.964Z,0.00
2019-02-25T03:12:33.935Z,0.00
2019-02-25T03:13:33.933Z,0.00
2019-02-25T03:14:33.915Z,0.00
2019-02-25T03:15:33.921Z,0.00
2019-02-25T03:16:34.004Z,0.00
2019-02-25T03:17:33.890Z,0.00
2019-02-25T03:18:33.876Z,0.00
2019-02-25T03:19:33.862Z,0.00
2019-02-25T03:20:33.864Z,0.00
2019-02-25T03:21:33.841Z,0.00
2019-02-25T03:22:33.886Z,0.00
2019-02-25T03:23:33.825Z,0.00
2019-02-25T03:24:33.812Z,0.00
2019-02-25T03:25:33.812Z,0.00
2019-02-25T03:26:33.796Z,0.00
2019-02-25T03:27:33.784Z,0.00
2019-02-25T03:28:33.780Z,0.00
2019-02-25T03:29:33.754Z,0.00
2019-02-25T03:30:33.774Z,0.00
2019-02-25T03:31:33.730Z,0.00
2019-02-25T03:32:33.732Z,0.00
2019-02-25T03:33:33.722Z,0.00
2019-02-25T03:34:33.754Z,0.00
2019-02-25T03:35:33.690Z,0.00
2019-02-25T03:36:33.684Z,0.00
2019-02-25T03:37:33.676Z,0.00
2019-02-25T03:38:33.665Z,0.00
2019-02-25T03:39:33.665Z,0.00
2019-02-25T03:40:33.767Z,0.00
2019-02-25T03:41:33.626Z,0.00
2019-02-25T03:42:33.648Z,0.00
2019-02-25T03:43:33.635Z,0.00
2019-02-25T03:44:33.597Z,0.00
2019-02-25T03:45:33.587Z,0.00
2019-02-25T03:46:33.603Z,0.00
2019-02-25T03:47:33.571Z,0.00
2019-02-25T03:48:33.559Z,0.00
2019-02-25T03:49:33.542Z,0.00
2019-02-25T03:50:33.553Z,0.00
2019-02-25T03:51:33.522Z,0.00
2019-02-25T03:52:33.540Z,0.00
2019-02-25T03:53:33.510Z,0.00
2019-02-25T03:54:33.507Z,0.00
2019-02-25T03:55:33.483Z,0.00
2019-02-25T03:56:33.485Z,0.00
2019-02-25T03:57:33.475Z,0.00
2019-02-25T03:58:33.491Z,0.00
2019-02-25T03:59:33.463Z,0.00
2019-02-25T04:00:33.488Z,0.00
2019-02-25T04:01:33.422Z,0.00
2019-02-25T04:02:33.411Z,0.00
2019-02-25T04:03:33.413Z,0.00
2019-02-25T04:04:33.416Z,0.00
2019-02-25T04:05:33.379Z,0.00
2019-02-25T04:06:33.365Z,0.00
2019-02-25T04:07:33.359Z,0.00
2019-02-25T04:08:33.347Z,0.00
2019-02-25T04:09:33.355Z,0.00
2019-02-25T04:10:33.383Z,0.00
2019-02-25T04:11:33.329Z,0.00
2019-02-25T04:12:33.311Z,0.00
2019-02-25T04:13:33.315Z,0.00
2019-02-25T04:14:33.296Z,0.00
2019-02-25T04:15:33.291Z,0.00
2019-02-25T04:16:33.298Z,0.00
2019-02-25T04:17:33.263Z,0.00
2019-02-25T04:18:33.262Z,0.00
2019-02-25T04:19:33.234Z,0.00
2019-02-25T04:20:33.240Z,0.00
2019-02-25T04:21:33.228Z,0.00
2019-02-25T04:22:33.213Z,0.00
2019-02-25T04:23:33.197Z,0.00
2019-02-25T04:24:33.187Z,0.00
2019-02-25T04:25:33.170Z,0.00
2019-02-25T04:26:33.167Z,0.00
2019-02-25T04:27:33.159Z,0.00
2019-02-25T04:28:33.150Z,0.00
2019-02-25T04:29:33.142Z,0.00
2019-02-25T04:30:33.122Z,0.00
2019-02-25T04:31:33.116Z,0.00
2019-02-25T04:32:33.112Z,0.00
2019-02-25T04:33:33.093Z,0.00
2019-02-25T04:34:33.113Z,0.00
2019-02-25T04:35:33.100Z,0.00
2019-02-25T04:36:33.058Z,0.00
2019-02-25T04:37:33.052Z,0.00
2019-02-25T04:38:33.037Z,0.00
2019-02-25T04:39:33.042Z,0.00
2019-02-25T04:40:33.039Z,0.00
2019-02-25T04:41:33.020Z,0.00
2019-02-25T04:42:32.997Z,0.00
2019-02-25T04:43:33.274Z,0.00
2019-02-25T04:44:32.991Z,0.00
2019-02-25T04:45:32.970Z,0.00
2019-02-25T04:46:32.969Z,0.00
2019-02-25T04:47:32.953Z,0.00
2019-02-25T04:48:32.953Z,0.00
2019-02-25T04:49:32.927Z,0.00
2019-02-25T04:50:32.916Z,0.00
2019-02-25T04:51:32.914Z,0.00
2019-02-25T04:52:32.927Z,0.00
2019-02-25T04:53:32.911Z,0.00
2019-02-25T04:54:32.877Z,0.00
2019-02-25T04:55:32.999Z,0.00
2019-02-25T04:56:32.855Z,0.00
2019-02-25T04:57:32.841Z,0.00
2019-02-25T04:58:32.847Z,0.00
2019-02-25T04:59:32.831Z,0.00
2019-02-25T05:00:32.814Z,0.00
2019-02-25T05:01:32.821Z,0.00
2019-02-25T05:02:32.787Z,0.00
2019-02-25T05:03:32.790Z,0.00
2019-02-25T05:04:32.781Z,0.00
2019-02-25T05:05:32.755Z,0.00
2019-02-25T05:06:32.754Z,0.00
2019-02-25T05:07:32.767Z,0.00
2019-02-25T05:08:32.740Z,0.00
2019-02-25T05:09:32.740Z,0.00
2019-02-25T05:10:32.720Z,0.00
2019-02-25T05:11:32.697Z,0.00
2019-02-25T05:12:32.685Z,0.00
2019-02-25T05:13:32.668Z,0.00
2019-02-25T05:14:32.662Z,0.00
2019-02-25T05:15:32.668Z,0.00
2019-02-25T05:16:32.759Z,0.00
2019-02-25T05:17:32.659Z,0.00
2019-02-25T05:18:32.644Z,0.00
2019-02-25T05:19:32.618Z,0.00
2019-02-25T05:20:32.614Z,0.00
2019-02-25T05:21:32.621Z,0.00
2019-02-25T05:22:32.611Z,0.00
2019-02-25T05:23:32.580Z,0.00
2019-02-25T05:24:32.587Z,0.00
2019-02-25T05:25:32.569Z,0.00
2019-02-25T05:26:32.551Z,0.00
2019-02-25T05:27:32.552Z,0.00
2019-02-25T05:28:32.550Z,0.00
2019-02-25T05:29:32.510Z,0.00
2019-02-25T05:30:32.528Z,0.00
2019-02-25T05:31:32.503Z,0.00
2019-02-25T05:32:32.507Z,0.00
2019-02-25T05:33:32.500Z,0.00
2019-02-25T05:34:32.497Z,0.00
2019-02-25T05:35:32.462Z,0.00
2019-02-25T05:36:32.437Z,0.00
2019-02-25T05:37:32.430Z,0.00
2019-02-25T05:38:32.441Z,0.00
2019-02-25T05:39:32.420Z,0.00
2019-02-25T05:40:32.433Z,0.00
2019-02-25T05:41:32.391Z,0.00
2019-02-25T05:42:32.385Z,0.00
2019-02-25T05:43:32.376Z,0.00
2019-02-25T05:44:32.358Z,4.00
2019-02-25T05:45:32.359Z,4.00
2019-02-25T05:46:32.458Z,0.00
2019-02-25T05:47:32.370Z,4.00
2019-02-25T05:48:32.322Z,0.00
2019-02-25T05:49:32.339Z,4.00
2019-02-25T05:50:32.297Z,4.00
2019-02-25T05:51:32.298Z,4.00
2019-02-25T05:52:32.303Z,8.00
2019-02-25T05:53:32.264Z,8.00
2019-02-25T05:54:32.274Z,8.00
2019-02-25T05:55:32.244Z,12.00
2019-02-25T05:56:32.257Z,16.00
2019-02-25T05:57:32.292Z,20.00
2019-02-25T05:58:32.234Z,24.00
2019-02-25T05:59:32.205Z,24.00
2019-02-25T06:00:32.189Z,32.00
2019-02-25T06:01:32.189Z,40.00
2019-02-25T06:02:32.183Z,44.00
2019-02-25T06:03:32.166Z,56.00
2019-02-25T06:04:32.180Z,72.00
2019-02-25T06:05:32.147Z,80.00
2019-02-25T06:06:32.141Z,96.00
2019-02-25T06:07:32.131Z,116.00
2019-02-25T06:08:32.110Z,136.00
2019-02-25T06:09:32.115Z,160.00
2019-02-25T06:10:32.165Z,180.00
2019-02-25T06:11:32.121Z,204.00
2019-02-25T06:12:32.070Z,228.00
2019-02-25T06:13:32.055Z,248.00
2019-02-25T06:14:32.095Z,276.00
2019-02-25T06:15:32.056Z,304.00
2019-02-25T06:16:32.061Z,340.00
2019-02-25T06:17:32.037Z,376.00
2019-02-25T06:18:32.033Z,412.00
2019-02-25T06:19:31.994Z,452.00
2019-02-25T06:20:31.987Z,496.00
2019-02-25T06:21:31.977Z,540.00
2019-02-25T06:22:31.979Z,600.00
2019-02-25T06:23:31.977Z,660.00
2019-02-25T06:24:31.952Z,720.00
2019-02-25T06:26:25.237Z,856.00
2019-02-25T06:27:30.654Z,932.00
2019-02-25T06:28:26.227Z,1008.00
2019-02-25T06:29:25.202Z,1084.00
2019-02-25T06:30:25.194Z,1156.00
2019-02-25T06:31:25.182Z,1236.00
2019-02-25T06:32:25.203Z,1312.00
2019-02-25T06:33:25.162Z,1392.00
2019-02-25T06:34:25.245Z,1472.00
2019-02-25T06:35:25.148Z,1548.00
2019-02-25T06:36:25.127Z,1632.00
2019-02-25T06:37:25.121Z,1716.00
2019-02-25T06:38:25.113Z,1796.00
2019-02-25T06:39:25.102Z,1864.00
2019-02-25T06:40:25.111Z,1932.00
2019-02-25T06:41:25.083Z,2000.00
2019-02-25T06:42:25.071Z,2080.00
2019-02-25T06:43:25.060Z,2172.00
2019-02-25T06:44:25.050Z,2256.00
2019-02-25T06:45:25.040Z,2328.00
2019-02-25T06:46:25.133Z,2380.00
2019-02-25T06:47:25.017Z,2420.00
2019-02-25T06:48:25.007Z,2532.00
2019-02-25T06:49:24.999Z,2672.00
2019-02-25T06:50:24.985Z,2784.00
2019-02-25T06:51:24.975Z,2868.00
2019-02-25T06:52:24.979Z,2944.00
2019-02-25T06:53:24.959Z,3024.00
2019-02-25T06:54:24.950Z,3108.00
2019-02-25T06:55:24.934Z,3212.00
2019-02-25T06:56:24.924Z,3320.00
2019-02-25T06:57:24.913Z,3492.00
2019-02-25T06:58:24.924Z,4080.00
2019-02-25T06:59:25.576Z,5060.00
2019-02-25T07:00:24.882Z,5072.00
2019-02-25T07:01:24.875Z,5572.00
2019-02-25T07:02:24.865Z,6780.00
2019-02-25T07:03:24.851Z,7468.00
2019-02-25T07:04:24.855Z,8096.00
2019-02-25T07:05:24.834Z,8280.00
2019-02-25T07:06:24.824Z,8288.00
2019-02-25T07:07:24.812Z,7932.00
2019-02-25T07:08:24.801Z,7608.00
2019-02-25T07:09:24.788Z,7520.00
2019-02-25T07:10:24.794Z,7392.00
2019-02-25T07:11:24.765Z,7568.00
2019-02-25T07:12:24.753Z,7516.00
2019-02-25T07:13:24.743Z,7744.00
2019-02-25T07:14:24.743Z,8180.00
2019-02-25T07:15:24.727Z,8536.00
2019-02-25T07:16:24.734Z,8472.00
2019-02-25T07:17:24.705Z,8532.00
2019-02-25T07:18:24.693Z,8544.00
2019-02-25T07:19:24.682Z,8736.00
2019-02-25T07:20:24.676Z,9060.00
2019-02-25T07:21:24.660Z,9276.00
2019-02-25T07:22:24.666Z,9164.00
2019-02-25T07:23:24.641Z,9040.00
2019-02-25T07:24:24.636Z,9100.00
2019-02-25T07:25:24.620Z,9616.00
2019-02-25T07:26:24.611Z,9828.00
2019-02-25T07:27:24.598Z,9472.00
2019-02-25T07:28:24.611Z,9356.00
2019-02-25T07:29:24.579Z,9668.00
2019-02-25T07:30:24.569Z,9736.00
2019-02-25T07:31:24.556Z,9924.00
2019-02-25T07:32:24.546Z,9732.00
2019-02-25T07:33:24.539Z,9624.00
2019-02-25T07:34:24.557Z,9344.00
2019-02-25T07:35:25.846Z,8184.00
2019-02-25T07:36:24.508Z,9196.00
2019-02-25T07:37:24.502Z,9584.00
2019-02-25T07:38:24.484Z,9788.00
2019-02-25T07:39:24.473Z,10652.00
2019-02-25T07:40:24.492Z,11640.00
2019-02-25T07:41:24.454Z,12152.00
2019-02-25T07:42:24.443Z,12356.00
2019-02-25T07:43:24.431Z,11304.00
2019-02-25T07:44:24.421Z,11856.00
2019-02-25T07:45:24.408Z,12400.00
2019-02-25T07:46:24.495Z,12608.00
2019-02-25T07:47:24.389Z,12836.00
2019-02-25T07:48:24.376Z,12080.00
2019-02-25T07:49:24.367Z,12168.00
2019-02-25T07:50:24.357Z,12564.00
2019-02-25T07:51:24.347Z,13836.00
2019-02-25T07:52:24.360Z,14280.00
2019-02-25T07:53:24.326Z,14816.00
2019-02-25T07:54:24.321Z,15680.00
2019-02-25T07:55:24.305Z,15648.00
2019-02-25T07:56:24.296Z,15616.00
2019-02-25T07:57:24.285Z,16320.00
2019-02-25T07:58:24.284Z,18464.00
2019-02-25T07:59:24.258Z,20096.00
2019-02-25T08:00:24.251Z,20192.00
2019-02-25T08:01:24.238Z,19456.00
2019-02-25T08:02:24.230Z,20128.00
2019-02-25T08:03:24.219Z,20768.00
2019-02-25T08:04:24.222Z,22656.00
2019-02-25T08:05:24.201Z,25280.00
2019-02-25T08:06:24.188Z,26912.00
2019-02-25T08:07:24.174Z,25600.00
2019-02-25T08:08:24.164Z,24352.00
2019-02-25T08:09:24.155Z,25664.00
2019-02-25T08:10:24.161Z,30848.00
2019-02-25T08:11:24.132Z,32832.00
2019-02-25T08:12:24.174Z,31296.00
2019-02-25T08:13:24.113Z,27904.00
2019-02-25T08:14:24.102Z,23904.00
2019-02-25T08:15:24.090Z,20192.00
2019-02-25T08:16:24.098Z,18496.00
2019-02-25T08:17:24.071Z,18080.00
2019-02-25T08:18:24.060Z,17536.00
2019-02-25T08:19:24.049Z,16480.00
2019-02-25T08:20:24.036Z,15808.00
2019-02-25T08:21:24.023Z,15328.00
2019-02-25T08:22:24.027Z,15264.00
2019-02-25T08:23:24.001Z,15136.00
2019-02-25T08:24:30.361Z,15072.00
2019-02-25T08:25:24.981Z,15264.00
2019-02-25T08:26:23.969Z,15968.00
2019-02-25T08:27:23.959Z,18368.00
2019-02-25T08:28:23.963Z,22944.00
2019-02-25T08:29:23.937Z,27040.00
2019-02-25T08:30:23.933Z,28160.00
2019-02-25T08:31:23.918Z,27904.00
2019-02-25T08:32:23.940Z,27584.00
2019-02-25T08:33:23.895Z,28192.00
2019-02-25T08:34:23.895Z,29120.00
2019-02-25T08:35:23.877Z,29152.00
2019-02-25T08:36:23.866Z,29664.00
2019-02-25T08:37:23.858Z,28512.00
2019-02-25T08:38:23.842Z,29184.00
2019-02-25T08:39:23.830Z,30368.00
2019-02-25T08:40:23.834Z,32128.00
2019-02-25T08:41:23.807Z,31552.00
2019-02-25T08:42:23.797Z,29856.00
2019-02-25T08:43:23.791Z,20032.00
2019-02-25T08:44:23.778Z,13876.00
2019-02-25T08:45:23.766Z,19328.00
2019-02-25T08:46:23.772Z,27808.00
2019-02-25T08:47:23.746Z,22592.00
2019-02-25T08:48:23.737Z,12880.00
2019-02-25T08:49:23.724Z,12120.00
2019-02-25T08:50:23.717Z,13264.00
2019-02-25T08:51:23.698Z,18240.00
2019-02-25T08:52:23.789Z,21536.00
2019-02-25T08:53:23.680Z,17664.00
2019-02-25T08:54:23.685Z,11056.00
2019-02-25T08:55:23.660Z,10660.00
2019-02-25T08:56:23.650Z,17216.00
2019-02-25T08:57:23.638Z,20512.00
2019-02-25T08:58:23.644Z,20064.00
2019-02-25T08:59:23.616Z,19616.00
2019-02-25T09:00:23.607Z,20544.00
2019-02-25T09:01:23.597Z,19680.00
2019-02-25T09:02:23.584Z,14352.00
2019-02-25T09:03:23.574Z,16992.00
2019-02-25T09:04:23.578Z,26336.00
2019-02-25T09:05:23.555Z,29184.00
2019-02-25T09:06:23.545Z,20096.00
2019-02-25T09:07:23.529Z,10944.00
2019-02-25T09:08:23.519Z,9888.00
2019-02-25T09:09:23.511Z,10612.00
2019-02-25T09:10:23.513Z,10628.00
2019-02-25T09:11:23.487Z,10400.00
2019-02-25T09:12:23.478Z,10812.00
2019-02-25T09:13:23.922Z,12304.00
2019-02-25T09:14:23.463Z,15712.00
2019-02-25T09:15:23.453Z,16384.00
2019-02-25T09:16:23.463Z,24672.00
2019-02-25T09:17:23.424Z,34112.00
2019-02-25T09:18:23.416Z,42848.00
2019-02-25T09:19:23.401Z,43552.00
2019-02-25T09:20:23.395Z,44320.00
2019-02-25T09:21:31.659Z,46176.00
2019-02-25T09:22:24.388Z,47456.00
2019-02-25T09:23:23.360Z,47808.00
2019-02-25T09:24:23.350Z,48896.00
2019-02-25T09:25:23.339Z,48896.00
2019-02-25T09:26:23.331Z,47904.00
2019-02-25T09:27:23.315Z,47744.00
2019-02-25T09:28:23.321Z,49440.00
2019-02-25T09:29:23.296Z,49760.00
2019-02-25T09:30:23.286Z,46144.00
2019-02-25T09:31:23.291Z,44928.00
2019-02-25T09:32:23.264Z,46848.00
2019-02-25T09:33:23.251Z,49536.00
2019-02-25T09:34:23.257Z,51360.00
2019-02-25T09:35:23.228Z,51136.00
2019-02-25T09:36:23.219Z,47968.00
2019-02-25T09:37:23.214Z,49472.00
2019-02-25T09:38:23.700Z,51456.00
2019-02-25T09:39:23.187Z,49664.00
2019-02-25T09:40:23.255Z,50752.00
2019-02-25T09:41:29.699Z,53216.00
2019-02-25T09:42:24.156Z,56384.00
2019-02-25T09:43:23.145Z,54816.00
2019-02-25T09:44:23.136Z,52032.00
2019-02-25T09:45:23.123Z,52864.00
2019-02-25T09:46:23.142Z,52896.00
2019-02-25T09:47:23.100Z,53728.00
2019-02-25T09:48:23.091Z,53536.00
2019-02-25T09:49:23.081Z,52992.00
2019-02-25T09:50:23.072Z,54720.00
2019-02-25T09:51:23.067Z,56256.00
2019-02-25T09:52:23.155Z,56384.00
2019-02-25T09:53:23.035Z,55360.00
2019-02-25T09:54:23.028Z,54560.00
2019-02-25T09:55:23.666Z,51520.00
2019-02-25T09:56:23.003Z,51520.00
2019-02-25T09:57:22.994Z,56160.00
2019-02-25T09:58:22.996Z,57952.00
2019-02-25T09:59:22.970Z,56768.00
2019-02-25T10:00:22.961Z,53984.00
2019-02-25T10:01:22.951Z,52288.00
2019-02-25T10:02:24.758Z,54080.00
2019-02-25T10:03:22.929Z,56352.00
2019-02-25T10:04:22.933Z,55808.00
2019-02-25T10:05:22.907Z,54880.00
2019-02-25T10:06:22.904Z,56672.00
2019-02-25T10:07:22.884Z,58208.00
2019-02-25T10:08:22.875Z,57280.00
2019-02-25T10:09:29.663Z,57408.00
2019-02-25T10:10:23.873Z,56928.00
2019-02-25T10:11:22.843Z,56384.00
2019-02-25T10:12:22.834Z,56000.00
2019-02-25T10:13:22.821Z,57056.00
2019-02-25T10:14:22.813Z,58976.00
2019-02-25T10:15:22.798Z,59808.00
2019-02-25T10:16:22.805Z,56928.00
2019-02-25T10:17:24.046Z,56480.00
2019-02-25T10:18:22.769Z,62368.00
2019-02-25T10:19:22.757Z,61408.00
2019-02-25T10:20:22.744Z,56192.00
2019-02-25T10:21:22.734Z,57632.00
2019-02-25T10:22:22.741Z,57088.00
2019-02-25T10:23:22.712Z,56736.00
2019-02-25T10:24:22.706Z,57216.00
2019-02-25T10:25:22.693Z,55776.00
2019-02-25T10:26:22.680Z,55232.00
2019-02-25T10:27:22.670Z,56736.00
2019-02-25T10:28:22.673Z,59744.00
2019-02-25T10:29:22.651Z,60576.00
2019-02-25T10:30:22.638Z,59520.00
2019-02-25T10:31:22.627Z,59968.00
2019-02-25T10:32:23.672Z,58912.00
2019-02-25T10:33:22.605Z,58016.00
2019-02-25T10:34:24.060Z,61184.00
2019-02-25T10:35:24.751Z,60480.00
2019-02-25T10:36:22.573Z,58592.00
2019-02-25T10:37:22.563Z,57152.00
2019-02-25T10:38:22.552Z,55552.00
2019-02-25T10:39:22.542Z,56256.00
2019-02-25T10:40:24.761Z,58720.00
2019-02-25T10:41:23.419Z,61344.00
2019-02-25T10:42:22.509Z,62944.00
2019-02-25T10:43:22.503Z,62496.00
2019-02-25T10:44:22.487Z,62400.00
2019-02-25T10:45:22.487Z,62720.00
2019-02-25T10:46:22.483Z,64992.00
2019-02-25T10:47:22.456Z,65344.00
2019-02-25T10:48:23.622Z,65280.00
2019-02-25T10:49:24.153Z,66112.00
2019-02-25T10:50:22.424Z,64832.00
2019-02-25T10:51:22.415Z,64448.00
2019-02-25T10:52:22.503Z,62816.00
2019-02-25T10:53:22.392Z,64320.00
2019-02-25T10:54:23.315Z,65728.00
2019-02-25T10:55:22.369Z,64768.00
2019-02-25T10:56:23.755Z,65056.00
2019-02-25T10:57:24.561Z,64256.00
2019-02-25T10:58:22.437Z,65056.00
2019-02-25T10:59:22.331Z,64832.00
2019-02-25T11:00:22.318Z,63744.00
2019-02-25T11:01:24.506Z,63040.00
2019-02-25T11:02:22.296Z,64544.00
2019-02-25T11:03:22.286Z,65376.00
2019-02-25T11:04:23.828Z,64640.00
2019-02-25T11:05:23.296Z,64288.00
2019-02-25T11:06:22.254Z,65600.00
2019-02-25T11:07:22.241Z,64800.00
2019-02-25T11:08:22.231Z,64448.00
2019-02-25T11:09:22.228Z,64608.00
2019-02-25T11:10:22.427Z,64448.00
2019-02-25T11:11:23.240Z,64992.00
2019-02-25T11:12:23.796Z,66688.00
2019-02-25T11:13:22.178Z,67776.00
2019-02-25T11:14:22.167Z,68000.00
2019-02-25T11:15:22.157Z,66336.00
2019-02-25T11:16:22.161Z,65504.00
2019-02-25T11:17:22.837Z,65760.00
2019-02-25T11:18:24.011Z,66112.00
2019-02-25T11:19:22.867Z,67136.00
2019-02-25T11:20:22.103Z,67520.00
2019-02-25T11:21:22.090Z,67200.00
2019-02-25T11:22:22.103Z,66752.00
2019-02-25T11:23:22.071Z,66912.00
2019-02-25T11:24:23.415Z,68288.00
2019-02-25T11:25:24.090Z,68576.00
2019-02-25T11:26:23.699Z,67456.00
2019-02-25T11:27:22.031Z,66080.00
2019-02-25T11:28:25.890Z,64640.00
2019-02-25T11:29:22.007Z,63456.00
2019-02-25T11:30:23.711Z,62048.00
2019-02-25T11:31:24.545Z,62688.00
2019-02-25T11:32:23.778Z,63744.00
2019-02-25T11:33:22.749Z,63392.00
2019-02-25T11:34:21.971Z,60544.00
2019-02-25T11:35:21.942Z,60768.00
2019-02-25T11:36:22.129Z,60736.00
2019-02-25T11:37:24.471Z,61472.00
2019-02-25T11:38:23.342Z,63456.00
2019-02-25T11:39:21.909Z,67200.00
2019-02-25T11:40:21.910Z,70240.00
2019-02-25T11:41:21.878Z,70016.00
2019-02-25T11:42:21.871Z,69248.00
2019-02-25T11:43:21.861Z,69984.00
2019-02-25T11:44:23.398Z,70176.00
2019-02-25T11:45:21.836Z,69600.00
2019-02-25T11:46:21.858Z,66016.00
2019-02-25T11:47:21.816Z,65248.00
2019-02-25T11:48:22.650Z,65504.00
2019-02-25T11:49:21.795Z,65056.00
2019-02-25T11:50:21.948Z,63968.00
2019-02-25T11:51:21.772Z,63008.00
2019-02-25T11:52:21.791Z,64288.00
2019-02-25T11:53:21.749Z,65248.00
2019-02-25T11:54:21.740Z,62816.00
2019-02-25T11:55:22.008Z,60000.00
2019-02-25T11:56:21.723Z,59936.00
2019-02-25T11:57:21.711Z,58720.00
2019-02-25T11:58:21.721Z,61184.00
2019-02-25T11:59:21.693Z,61280.00
2019-02-25T12:00:21.696Z,61280.00
2019-02-25T12:01:21.703Z,63904.00
2019-02-25T12:02:25.450Z,65152.00
2019-02-25T12:03:21.662Z,63776.00
2019-02-25T12:04:21.654Z,60032.00
2019-02-25T12:05:21.621Z,60704.00
2019-02-25T12:06:21.633Z,59264.00
2019-02-25T12:07:21.621Z,61152.00
2019-02-25T12:08:21.640Z,62208.00
2019-02-25T12:09:21.621Z,64544.00
2019-02-25T12:10:21.586Z,64608.00
2019-02-25T12:11:21.557Z,63456.00
2019-02-25T12:12:21.556Z,60768.00
2019-02-25T12:13:21.542Z,53536.00
2019-02-25T12:14:21.541Z,56160.00
2019-02-25T12:15:21.512Z,55328.00
2019-02-25T12:16:21.797Z,59200.00
2019-02-25T12:17:21.493Z,57952.00
2019-02-25T12:18:21.484Z,58112.00
2019-02-25T12:19:21.480Z,51616.00
2019-02-25T12:20:21.481Z,51040.00
2019-02-25T12:21:21.482Z,52192.00
2019-02-25T12:22:21.468Z,43040.00
2019-02-25T12:23:21.454Z,39232.00
2019-02-25T12:24:21.418Z,46176.00
2019-02-25T12:25:21.421Z,51008.00
2019-02-25T12:26:21.418Z,52480.00
2019-02-25T12:27:21.386Z,51296.00
2019-02-25T12:28:21.392Z,52608.00
2019-02-25T12:29:21.366Z,50656.00
2019-02-25T12:30:21.364Z,50912.00
2019-02-25T12:31:21.345Z,49664.00